createdAt,value
2022-12-12T00:03:59.542Z,14.10
2022-12-12T00:09:00.572Z,13.63
2022-12-12T00:13:55.208Z,14.13
2022-12-12T00:18:57.227Z,15.07
2022-12-12T00:23:45.535Z,14.20
2022-12-12T00:28:50.678Z,12.00
2022-12-12T00:33:39.726Z,14.43
2022-12-12T00:38:36.449Z,13.10
2022-12-12T00:43:31.943Z,14.47
2022-12-12T00:48:31.503Z,14.60
2022-12-12T00:53:38.300Z,14.30
2022-12-12T00:59:42.471Z,14.67
2022-12-12T01:05:37.767Z,14.30
2022-12-12T01:11:11.973Z,16.20
2022-12-12T01:22:37.915Z,14.60
2022-12-12T01:27:57.772Z,16.27
2022-12-12T01:33:52.909Z,15.63
2022-12-12T01:39:11.465Z,15.23
2022-12-12T01:44:15.843Z,15.33
2022-12-12T01:54:55.432Z,14.37
2022-12-12T02:00:11.420Z,14.97
2022-12-12T02:05:20.163Z,14.70
2022-12-12T02:10:13.917Z,16.57
2022-12-12T02:15:43.331Z,14.93
2022-12-12T02:27:29.976Z,16.80
2022-12-12T02:32:31.121Z,15.20
2022-12-12T02:37:35.205Z,16.50
2022-12-12T02:42:38.417Z,16.00
2022-12-12T02:47:45.223Z,15.67
2022-12-12T02:52:33.392Z,15.57
2022-12-12T02:57:22.543Z,16.97
2022-12-12T03:02:40.594Z,14.83
2022-12-12T03:07:48.716Z,14.63
2022-12-12T03:12:51.834Z,15.13
2022-12-12T03:18:12.495Z,15.77
2022-12-12T03:23:17.307Z,16.43
2022-12-12T03:28:30.562Z,15.17
2022-12-12T03:33:22.234Z,15.13
2022-12-12T03:38:21.848Z,15.87
2022-12-12T03:43:17.862Z,15.03
2022-12-12T03:48:31.024Z,15.73
2022-12-12T03:53:35.768Z,14.60
2022-12-12T03:58:56.325Z,16.13
2022-12-12T04:04:00.649Z,14.77
2022-12-12T04:09:03.079Z,16.47
2022-12-12T04:14:22.609Z,16.23
2022-12-12T04:19:46.300Z,15.83
2022-12-12T04:24:46.583Z,13.27
2022-12-12T04:29:51.428Z,14.37
2022-12-12T04:34:44.328Z,13.73
2022-12-12T04:39:29.605Z,13.07
2022-12-12T04:44:21.343Z,14.33
2022-12-12T04:49:08.388Z,11.70
2022-12-12T04:53:56.463Z,13.80
2022-12-12T04:58:41.520Z,13.70
2022-12-12T05:03:43.301Z,13.00
2022-12-12T05:08:36.400Z,14.80
2022-12-12T05:13:21.768Z,14.40
2022-12-12T05:18:10.480Z,13.87
2022-12-12T05:22:56.119Z,12.30
2022-12-12T05:27:43.311Z,13.80
2022-12-12T05:32:31.053Z,11.80
2022-12-12T05:37:21.155Z,13.37
2022-12-12T05:42:08.658Z,13.63
2022-12-12T05:46:58.437Z,13.83
2022-12-12T05:51:44.851Z,11.93
2022-12-12T05:56:31.743Z,13.30
2022-12-12T06:01:36.656Z,13.83
2022-12-12T06:06:23.501Z,14.53
2022-12-12T06:11:11.240Z,13.07
2022-12-12T06:16:15.608Z,13.57
2022-12-12T06:21:06.078Z,13.37
2022-12-12T06:25:51.842Z,14.27
2022-12-12T06:30:40.194Z,15.43
2022-12-12T06:35:27.001Z,14.77
2022-12-12T06:40:15.592Z,13.73
2022-12-12T06:45:05.756Z,13.47
2022-12-12T06:49:52.605Z,14.43
2022-12-12T06:54:39.971Z,15.17
2022-12-12T06:59:30.505Z,15.30
2022-12-12T07:04:14.972Z,15.10
2022-12-12T07:09:04.307Z,13.57
2022-12-12T09:37:38.353Z,9.93
2022-12-12T09:42:26.444Z,11.23
2022-12-12T09:47:16.835Z,11.43
2022-12-12T09:52:01.401Z,10.77
2022-12-12T09:57:06.179Z,11.00
2022-12-12T10:02:06.726Z,9.03
2022-12-12T10:07:01.387Z,10.73
2022-12-12T10:11:56.601Z,10.07
2022-12-12T10:16:57.269Z,10.53
2022-12-12T10:21:54.616Z,10.83
2022-12-12T10:26:38.542Z,10.30
2022-12-12T10:31:43.215Z,11.10
2022-12-12T10:37:03.731Z,10.23
2022-12-12T10:42:09.659Z,10.73
2022-12-12T10:47:01.730Z,11.17
2022-12-12T10:52:01.805Z,9.67
2022-12-12T10:57:20.615Z,10.90
2022-12-12T11:02:37.727Z,11.87
2022-12-12T11:07:31.015Z,10.97
2022-12-12T11:12:36.476Z,12.00
2022-12-12T11:17:34.983Z,10.57
2022-12-12T11:22:26.768Z,11.70
2022-12-12T11:27:25.352Z,11.20
2022-12-12T11:32:28.678Z,11.17
2022-12-12T11:37:24.050Z,11.37
2022-12-12T11:42:26.882Z,11.87
2022-12-12T11:47:41.089Z,11.50
2022-12-12T11:52:31.433Z,11.80
2022-12-12T11:57:35.282Z,11.43
2022-12-12T12:02:53.457Z,13.13
2022-12-12T12:08:13.674Z,12.40
2022-12-12T12:13:18.685Z,10.60
2022-12-12T12:18:37.076Z,10.83
2022-12-12T12:23:29.224Z,12.93
2022-12-12T12:29:02.030Z,11.07
2022-12-12T12:34:08.475Z,12.37
2022-12-12T12:39:13.178Z,11.97
2022-12-12T12:44:19.716Z,11.50
2022-12-12T12:49:17.403Z,11.50
2022-12-12T12:54:09.091Z,11.67
2022-12-12T12:58:59.424Z,12.00
2022-12-12T13:04:17.933Z,11.73
2022-12-12T13:09:08.619Z,12.57
2022-12-12T13:13:56.382Z,13.57
2022-12-12T13:18:46.327Z,13.30
2022-12-12T13:24:12.404Z,12.03
2022-12-12T13:29:08.347Z,11.60
2022-12-12T13:34:11.934Z,11.20
2022-12-12T13:38:58.944Z,12.23
2022-12-12T13:44:03.925Z,11.27
2022-12-12T13:48:50.638Z,11.47
2022-12-12T13:53:34.716Z,10.97
2022-12-12T13:58:39.628Z,11.50
2022-12-12T14:03:31.653Z,10.33
2022-12-12T14:08:36.767Z,10.47
2022-12-12T14:13:36.249Z,10.73
2022-12-12T14:18:30.147Z,10.90
2022-12-12T14:23:33.398Z,9.63
2022-12-12T14:28:20.305Z,9.80
2022-12-12T14:33:17.770Z,10.93
2022-12-12T14:38:27.934Z,10.27
2022-12-12T14:43:29.998Z,10.07
2022-12-12T14:48:20.035Z,10.77
2022-12-12T14:54:42.266Z,10.37
2022-12-12T15:36:32.968Z,13.57
2022-12-12T16:16:05.095Z,14.67
2022-12-12T16:20:59.757Z,15.77
2022-12-12T16:25:48.871Z,14.37
2022-12-12T16:30:44.942Z,15.97
2022-12-12T16:35:39.279Z,16.33
2022-12-12T16:40:29.686Z,15.83
2022-12-12T16:45:25.576Z,15.57
2022-12-12T16:50:25.305Z,14.57
2022-12-12T16:56:12.694Z,14.77
2022-12-12T17:01:41.060Z,14.33
2022-12-12T17:06:45.496Z,14.63
2022-12-12T17:12:12.391Z,12.90
2022-12-12T17:17:38.925Z,14.47
2022-12-12T17:28:27.116Z,13.03
2022-12-12T17:33:18.932Z,13.00
2022-12-12T17:38:32.418Z,13.70
2022-12-12T17:43:29.138Z,12.60
2022-12-12T17:48:35.528Z,16.37
2022-12-12T17:53:27.274Z,15.07
2022-12-12T17:58:47.096Z,14.40
2022-12-12T18:04:27.700Z,16.87
2022-12-12T18:10:00.115Z,16.07
2022-12-12T18:14:56.149Z,16.47
2022-12-12T18:20:02.508Z,16.27
2022-12-12T18:31:45.914Z,16.67
2022-12-12T18:36:50.041Z,14.30
2022-12-12T18:48:51.058Z,16.17
2022-12-12T19:07:45.447Z,16.77
2022-12-12T19:13:51.669Z,17.43
